sensor_id;sensor_type;location;lat;lon;timestamp;P1;durP1;ratioP1;P2;durP2;ratioP2
2998;SDS011;1509;51.964;7.628;2024-02-26T00:00:27;3.73;;;2.80;;
2998;SDS011;1509;51.964;7.628;2024-02-26T00:02:54;3.57;;;2.77;;
2998;SDS011;1509;51.964;7.628;2024-02-26T00:05:19;2.40;;;2.20;;
2998;SDS011;1509;51.964;7.628;2024-02-26T00:07:45;3.50;;;2.70;;
2998;SDS011;1509;51.964;7.628;2024-02-26T00:10:12;2.57;;;2.33;;
2998;SDS011;1509;51.964;7.628;2024-02-26T00:12:38;4.10;;;2.50;;
2998;SDS011;1509;51.964;7.628;2024-02-26T00:15:05;3.87;;;2.90;;
2998;SDS011;1509;51.964;7.628;2024-02-26T00:17:31;4.40;;;3.37;;
2998;SDS011;1509;51.964;7.628;2024-02-26T00:19:57;3.23;;;2.57;;
2998;SDS011;1509;51.964;7.628;2024-02-26T00:22:22;4.50;;;2.67;;
2998;SDS011;1509;51.964;7.628;2024-02-26T00:24:48;3.90;;;2.70;;
2998;SDS011;1509;51.964;7.628;2024-02-26T00:27:13;2.80;;;2.60;;
2998;SDS011;1509;51.964;7.628;2024-02-26T00:29:39;3.07;;;2.70;;
2998;SDS011;1509;51.964;7.628;2024-02-26T00:32:05;3.47;;;3.13;;
2998;SDS011;1509;51.964;7.628;2024-02-26T00:34:31;3.50;;;2.73;;
2998;SDS011;1509;51.964;7.628;2024-02-26T00:36:56;2.80;;;2.60;;
2998;SDS011;1509;51.964;7.628;2024-02-26T00:39:22;2.93;;;2.63;;
2998;SDS011;1509;51.964;7.628;2024-02-26T00:41:47;4.50;;;3.50;;
2998;SDS011;1509;51.964;7.628;2024-02-26T00:44:13;3.70;;;3.30;;
2998;SDS011;1509;51.964;7.628;2024-02-26T00:46:41;3.77;;;3.07;;
2998;SDS011;1509;51.964;7.628;2024-02-26T00:49:07;2.80;;;2.60;;
2998;SDS011;1509;51.964;7.628;2024-02-26T00:51:32;4.30;;;3.07;;
2998;SDS011;1509;51.964;7.628;2024-02-26T00:53:58;5.07;;;3.13;;
2998;SDS011;1509;51.964;7.628;2024-02-26T00:56:24;4.23;;;2.93;;
2998;SDS011;1509;51.964;7.628;2024-02-26T00:58:49;5.63;;;2.40;;
2998;SDS011;1509;51.964;7.628;2024-02-26T01:01:16;3.00;;;2.80;;
2998;SDS011;1509;51.964;7.628;2024-02-26T01:03:44;5.07;;;2.87;;
2998;SDS011;1509;51.964;7.628;2024-02-26T01:06:10;3.87;;;2.93;;
2998;SDS011;1509;51.964;7.628;2024-02-26T01:08:36;2.90;;;2.60;;
2998;SDS011;1509;51.964;7.628;2024-02-26T01:11:02;3.13;;;2.60;;
2998;SDS011;1509;51.964;7.628;2024-02-26T01:13:28;3.10;;;2.80;;
2998;SDS011;1509;51.964;7.628;2024-02-26T01:15:54;3.83;;;3.10;;
2998;SDS011;1509;51.964;7.628;2024-02-26T01:18:20;2.23;;;2.03;;
2998;SDS011;1509;51.964;7.628;2024-02-26T01:20:45;2.90;;;2.60;;
2998;SDS011;1509;51.964;7.628;2024-02-26T01:23:12;2.70;;;2.27;;
2998;SDS011;1509;51.964;7.628;2024-02-26T01:25:37;3.00;;;2.70;;
2998;SDS011;1509;51.964;7.628;2024-02-26T01:28:04;3.37;;;2.40;;
2998;SDS011;1509;51.964;7.628;2024-02-26T01:30:30;3.33;;;2.53;;
2998;SDS011;1509;51.964;7.628;2024-02-26T01:32:56;3.40;;;2.63;;
2998;SDS011;1509;51.964;7.628;2024-02-26T01:35:21;3.00;;;2.27;;
2998;SDS011;1509;51.964;7.628;2024-02-26T01:37:47;3.27;;;2.90;;
2998;SDS011;1509;51.964;7.628;2024-02-26T01:40:13;3.27;;;2.70;;
2998;SDS011;1509;51.964;7.628;2024-02-26T01:42:43;3.67;;;2.50;;
2998;SDS011;1509;51.964;7.628;2024-02-26T01:45:16;3.40;;;2.30;;
2998;SDS011;1509;51.964;7.628;2024-02-26T01:47:50;3.90;;;3.30;;
2998;SDS011;1509;51.964;7.628;2024-02-26T01:50:16;2.90;;;2.60;;
2998;SDS011;1509;51.964;7.628;2024-02-26T01:52:47;4.40;;;3.00;;
2998;SDS011;1509;51.964;7.628;2024-02-26T01:55:31;3.50;;;2.50;;
2998;SDS011;1509;51.964;7.628;2024-02-26T01:57:57;5.07;;;2.60;;
2998;SDS011;1509;51.964;7.628;2024-02-26T02:00:23;4.53;;;2.80;;
2998;SDS011;1509;51.964;7.628;2024-02-26T02:02:50;5.70;;;2.90;;
2998;SDS011;1509;51.964;7.628;2024-02-26T02:05:16;4.13;;;3.40;;
2998;SDS011;1509;51.964;7.628;2024-02-26T02:07:45;3.20;;;2.60;;
2998;SDS011;1509;51.964;7.628;2024-02-26T02:10:14;3.30;;;2.67;;
2998;SDS011;1509;51.964;7.628;2024-02-26T02:12:40;3.50;;;3.17;;
2998;SDS011;1509;51.964;7.628;2024-02-26T02:15:06;4.13;;;2.97;;
2998;SDS011;1509;51.964;7.628;2024-02-26T02:17:32;3.50;;;2.43;;
2998;SDS011;1509;51.964;7.628;2024-02-26T02:19:58;2.70;;;2.50;;
2998;SDS011;1509;51.964;7.628;2024-02-26T02:22:23;3.90;;;2.50;;
2998;SDS011;1509;51.964;7.628;2024-02-26T02:24:50;3.40;;;3.03;;
2998;SDS011;1509;51.964;7.628;2024-02-26T02:27:17;2.97;;;2.30;;
2998;SDS011;1509;51.964;7.628;2024-02-26T02:29:43;3.53;;;2.43;;
2998;SDS011;1509;51.964;7.628;2024-02-26T02:32:09;4.93;;;2.87;;
2998;SDS011;1509;51.964;7.628;2024-02-26T02:34:35;3.13;;;2.60;;
2998;SDS011;1509;51.964;7.628;2024-02-26T02:37:01;4.40;;;2.10;;
2998;SDS011;1509;51.964;7.628;2024-02-26T02:39:26;3.50;;;2.50;;
2998;SDS011;1509;51.964;7.628;2024-02-26T02:41:52;3.77;;;2.50;;
2998;SDS011;1509;51.964;7.628;2024-02-26T02:44:17;2.60;;;2.40;;
2998;SDS011;1509;51.964;7.628;2024-02-26T02:46:43;3.90;;;2.30;;
2998;SDS011;1509;51.964;7.628;2024-02-26T02:49:09;3.90;;;2.63;;
2998;SDS011;1509;51.964;7.628;2024-02-26T02:51:35;3.80;;;2.50;;
2998;SDS011;1509;51.964;7.628;2024-02-26T02:54:04;3.83;;;3.03;;
2998;SDS011;1509;51.964;7.628;2024-02-26T02:56:30;2.00;;;1.87;;
2998;SDS011;1509;51.964;7.628;2024-02-26T02:58:55;3.40;;;2.60;;
2998;SDS011;1509;51.964;7.628;2024-02-26T03:01:21;2.33;;;1.90;;
2998;SDS011;1509;51.964;7.628;2024-02-26T03:03:46;4.83;;;2.20;;
2998;SDS011;1509;51.964;7.628;2024-02-26T03:06:12;2.30;;;2.10;;
2998;SDS011;1509;51.964;7.628;2024-02-26T03:08:38;4.43;;;2.20;;
2998;SDS011;1509;51.964;7.628;2024-02-26T03:11:04;2.50;;;2.20;;
2998;SDS011;1509;51.964;7.628;2024-02-26T03:13:30;3.33;;;1.70;;
2998;SDS011;1509;51.964;7.628;2024-02-26T03:15:56;2.70;;;1.97;;
2998;SDS011;1509;51.964;7.628;2024-02-26T03:18:22;1.83;;;1.63;;
2998;SDS011;1509;51.964;7.628;2024-02-26T03:20:48;3.47;;;2.37;;
2998;SDS011;1509;51.964;7.628;2024-02-26T03:23:14;2.40;;;2.10;;
2998;SDS011;1509;51.964;7.628;2024-02-26T03:25:44;3.10;;;2.07;;
2998;SDS011;1509;51.964;7.628;2024-02-26T03:28:13;4.03;;;2.17;;
2998;SDS011;1509;51.964;7.628;2024-02-26T03:30:38;2.03;;;1.57;;
2998;SDS011;1509;51.964;7.628;2024-02-26T03:33:04;3.10;;;2.20;;
2998;SDS011;1509;51.964;7.628;2024-02-26T03:35:30;4.00;;;1.80;;
2998;SDS011;1509;51.964;7.628;2024-02-26T03:37:55;2.93;;;2.23;;
2998;SDS011;1509;51.964;7.628;2024-02-26T03:40:21;2.60;;;1.93;;
2998;SDS011;1509;51.964;7.628;2024-02-26T03:42:49;2.03;;;1.80;;
2998;SDS011;1509;51.964;7.628;2024-02-26T03:45:17;3.27;;;2.57;;
2998;SDS011;1509;51.964;7.628;2024-02-26T03:47:43;2.37;;;1.60;;
2998;SDS011;1509;51.964;7.628;2024-02-26T03:50:09;2.63;;;1.97;;
2998;SDS011;1509;51.964;7.628;2024-02-26T03:52:34;4.37;;;2.10;;
2998;SDS011;1509;51.964;7.628;2024-02-26T03:55:00;2.87;;;2.30;;
2998;SDS011;1509;51.964;7.628;2024-02-26T03:57:25;2.67;;;2.47;;
2998;SDS011;1509;51.964;7.628;2024-02-26T03:59:51;3.03;;;2.10;;
2998;SDS011;1509;51.964;7.628;2024-02-26T04:02:17;2.87;;;2.00;;
2998;SDS011;1509;51.964;7.628;2024-02-26T04:04:44;2.50;;;1.90;;
2998;SDS011;1509;51.964;7.628;2024-02-26T04:07:10;2.03;;;1.80;;
2998;SDS011;1509;51.964;7.628;2024-02-26T04:09:36;2.20;;;2.00;;
2998;SDS011;1509;51.964;7.628;2024-02-26T04:12:02;1.90;;;1.60;;
2998;SDS011;1509;51.964;7.628;2024-02-26T04:14:28;2.17;;;1.93;;
2998;SDS011;1509;51.964;7.628;2024-02-26T04:16:54;2.00;;;1.80;;
2998;SDS011;1509;51.964;7.628;2024-02-26T04:19:19;2.37;;;2.17;;
2998;SDS011;1509;51.964;7.628;2024-02-26T04:21:45;3.40;;;2.17;;
2998;SDS011;1509;51.964;7.628;2024-02-26T04:24:11;2.20;;;1.70;;
2998;SDS011;1509;51.964;7.628;2024-02-26T04:26:36;2.17;;;1.80;;
2998;SDS011;1509;51.964;7.628;2024-02-26T04:29:02;3.37;;;2.00;;
2998;SDS011;1509;51.964;7.628;2024-02-26T04:31:28;5.60;;;2.07;;
2998;SDS011;1509;51.964;7.628;2024-02-26T04:33:54;3.33;;;2.30;;
2998;SDS011;1509;51.964;7.628;2024-02-26T04:36:19;3.10;;;1.67;;
2998;SDS011;1509;51.964;7.628;2024-02-26T04:38:45;3.70;;;2.37;;
2998;SDS011;1509;51.964;7.628;2024-02-26T04:41:11;4.30;;;2.10;;
2998;SDS011;1509;51.964;7.628;2024-02-26T04:43:37;2.33;;;2.00;;
2998;SDS011;1509;51.964;7.628;2024-02-26T04:46:07;2.17;;;1.97;;
2998;SDS011;1509;51.964;7.628;2024-02-26T04:48:33;2.10;;;1.90;;
2998;SDS011;1509;51.964;7.628;2024-02-26T04:50:59;2.13;;;1.90;;
2998;SDS011;1509;51.964;7.628;2024-02-26T04:53:25;2.70;;;1.80;;
2998;SDS011;1509;51.964;7.628;2024-02-26T04:55:51;3.40;;;2.37;;
2998;SDS011;1509;51.964;7.628;2024-02-26T04:58:16;2.37;;;2.17;;
2998;SDS011;1509;51.964;7.628;2024-02-26T05:00:42;2.57;;;2.03;;
2998;SDS011;1509;51.964;7.628;2024-02-26T05:03:09;3.20;;;1.80;;
2998;SDS011;1509;51.964;7.628;2024-02-26T05:05:38;2.20;;;1.87;;
2998;SDS011;1509;51.964;7.628;2024-02-26T05:08:04;2.43;;;2.23;;
2998;SDS011;1509;51.964;7.628;2024-02-26T05:10:30;2.17;;;1.90;;
2998;SDS011;1509;51.964;7.628;2024-02-26T05:12:56;2.10;;;1.77;;
2998;SDS011;1509;51.964;7.628;2024-02-26T05:15:22;2.53;;;2.07;;
2998;SDS011;1509;51.964;7.628;2024-02-26T05:17:48;2.13;;;1.67;;
2998;SDS011;1509;51.964;7.628;2024-02-26T05:20:13;4.00;;;1.80;;
2998;SDS011;1509;51.964;7.628;2024-02-26T05:22:39;2.20;;;1.87;;
2998;SDS011;1509;51.964;7.628;2024-02-26T05:25:05;2.93;;;2.13;;
2998;SDS011;1509;51.964;7.628;2024-02-26T05:27:30;2.70;;;2.33;;
2998;SDS011;1509;51.964;7.628;2024-02-26T05:29:56;2.60;;;2.40;;
2998;SDS011;1509;51.964;7.628;2024-02-26T05:32:22;2.40;;;2.00;;
2998;SDS011;1509;51.964;7.628;2024-02-26T05:34:47;2.40;;;1.80;;
2998;SDS011;1509;51.964;7.628;2024-02-26T05:37:13;1.93;;;1.67;;
2998;SDS011;1509;51.964;7.628;2024-02-26T05:39:38;1.80;;;1.43;;
2998;SDS011;1509;51.964;7.628;2024-02-26T05:42:04;2.63;;;1.93;;
2998;SDS011;1509;51.964;7.628;2024-02-26T05:44:30;2.17;;;1.90;;
2998;SDS011;1509;51.964;7.628;2024-02-26T05:46:55;2.10;;;1.67;;
2998;SDS011;1509;51.964;7.628;2024-02-26T05:49:24;2.00;;;1.80;;
2998;SDS011;1509;51.964;7.628;2024-02-26T05:51:49;2.33;;;2.00;;
2998;SDS011;1509;51.964;7.628;2024-02-26T05:54:15;1.80;;;1.70;;
2998;SDS011;1509;51.964;7.628;2024-02-26T05:56:41;4.10;;;2.13;;
2998;SDS011;1509;51.964;7.628;2024-02-26T05:59:07;3.23;;;2.27;;
2998;SDS011;1509;51.964;7.628;2024-02-26T06:01:33;4.50;;;2.37;;
2998;SDS011;1509;51.964;7.628;2024-02-26T06:03:58;2.07;;;1.87;;
2998;SDS011;1509;51.964;7.628;2024-02-26T06:06:24;2.80;;;2.10;;
2998;SDS011;1509;51.964;7.628;2024-02-26T06:08:50;2.10;;;1.80;;
2998;SDS011;1509;51.964;7.628;2024-02-26T06:11:16;2.13;;;1.93;;
2998;SDS011;1509;51.964;7.628;2024-02-26T06:13:41;3.40;;;2.00;;
2998;SDS011;1509;51.964;7.628;2024-02-26T06:16:10;3.53;;;1.90;;
2998;SDS011;1509;51.964;7.628;2024-02-26T06:18:35;2.20;;;2.00;;
2998;SDS011;1509;51.964;7.628;2024-02-26T06:21:01;3.30;;;2.50;;
2998;SDS011;1509;51.964;7.628;2024-02-26T06:23:27;1.90;;;1.60;;
2998;SDS011;1509;51.964;7.628;2024-02-26T06:25:53;1.90;;;1.80;;
2998;SDS011;1509;51.964;7.628;2024-02-26T06:28:18;1.93;;;1.73;;
2998;SDS011;1509;51.964;7.628;2024-02-26T06:30:44;3.60;;;2.20;;
2998;SDS011;1509;51.964;7.628;2024-02-26T06:33:11;2.07;;;1.80;;
2998;SDS011;1509;51.964;7.628;2024-02-26T06:35:37;2.70;;;2.20;;
2998;SDS011;1509;51.964;7.628;2024-02-26T06:38:03;3.00;;;2.30;;
2998;SDS011;1509;51.964;7.628;2024-02-26T06:40:29;3.80;;;1.70;;
2998;SDS011;1509;51.964;7.628;2024-02-26T06:42:55;1.73;;;1.60;;
2998;SDS011;1509;51.964;7.628;2024-02-26T06:45:23;4.20;;;1.93;;
2998;SDS011;1509;51.964;7.628;2024-02-26T06:47:49;2.10;;;1.90;;
2998;SDS011;1509;51.964;7.628;2024-02-26T06:50:14;2.30;;;1.90;;
2998;SDS011;1509;51.964;7.628;2024-02-26T06:52:40;1.93;;;1.60;;
2998;SDS011;1509;51.964;7.628;2024-02-26T06:55:06;1.90;;;1.70;;
2998;SDS011;1509;51.964;7.628;2024-02-26T06:57:33;2.40;;;1.73;;
2998;SDS011;1509;51.964;7.628;2024-02-26T06:59:58;3.53;;;1.67;;
2998;SDS011;1509;51.964;7.628;2024-02-26T07:02:24;1.97;;;1.60;;
2998;SDS011;1509;51.964;7.628;2024-02-26T07:04:50;1.90;;;1.70;;
2998;SDS011;1509;51.964;7.628;2024-02-26T07:07:15;3.30;;;1.93;;
2998;SDS011;1509;51.964;7.628;2024-02-26T07:09:43;2.03;;;1.80;;
2998;SDS011;1509;51.964;7.628;2024-02-26T07:12:09;2.40;;;2.20;;
2998;SDS011;1509;51.964;7.628;2024-02-26T07:14:35;1.60;;;1.50;;
2998;SDS011;1509;51.964;7.628;2024-02-26T07:17:02;3.30;;;2.40;;
2998;SDS011;1509;51.964;7.628;2024-02-26T07:19:28;2.27;;;1.77;;
2998;SDS011;1509;51.964;7.628;2024-02-26T07:21:54;3.23;;;1.70;;
2998;SDS011;1509;51.964;7.628;2024-02-26T07:24:20;4.13;;;1.97;;
2998;SDS011;1509;51.964;7.628;2024-02-26T07:26:46;2.07;;;1.60;;
2998;SDS011;1509;51.964;7.628;2024-02-26T07:29:12;2.50;;;1.83;;
2998;SDS011;1509;51.964;7.628;2024-02-26T07:31:37;2.10;;;1.77;;
2998;SDS011;1509;51.964;7.628;2024-02-26T07:34:03;2.33;;;2.10;;
2998;SDS011;1509;51.964;7.628;2024-02-26T07:36:28;2.50;;;2.10;;
2998;SDS011;1509;51.964;7.628;2024-02-26T07:38:54;2.27;;;1.50;;
2998;SDS011;1509;51.964;7.628;2024-02-26T07:41:20;2.20;;;2.00;;
2998;SDS011;1509;51.964;7.628;2024-02-26T07:43:46;3.13;;;2.13;;
2998;SDS011;1509;51.964;7.628;2024-02-26T07:46:11;2.10;;;1.57;;
2998;SDS011;1509;51.964;7.628;2024-02-26T07:48:40;2.00;;;1.50;;
2998;SDS011;1509;51.964;7.628;2024-02-26T07:51:06;4.53;;;2.63;;
2998;SDS011;1509;51.964;7.628;2024-02-26T07:53:32;2.33;;;2.07;;
2998;SDS011;1509;51.964;7.628;2024-02-26T07:55:58;2.43;;;1.77;;
2998;SDS011;1509;51.964;7.628;2024-02-26T07:58:23;2.97;;;2.10;;
2998;SDS011;1509;51.964;7.628;2024-02-26T08:00:49;3.20;;;2.00;;
2998;SDS011;1509;51.964;7.628;2024-02-26T08:03:15;3.17;;;2.20;;
2998;SDS011;1509;51.964;7.628;2024-02-26T08:05:41;3.00;;;1.80;;
2998;SDS011;1509;51.964;7.628;2024-02-26T08:08:08;2.77;;;1.80;;
2998;SDS011;1509;51.964;7.628;2024-02-26T08:10:34;3.30;;;2.40;;
2998;SDS011;1509;51.964;7.628;2024-02-26T08:13:02;4.80;;;2.20;;
2998;SDS011;1509;51.964;7.628;2024-02-26T08:15:31;2.57;;;2.00;;
2998;SDS011;1509;51.964;7.628;2024-02-26T08:18:02;2.30;;;2.10;;
2998;SDS011;1509;51.964;7.628;2024-02-26T08:20:31;2.33;;;2.10;;
2998;SDS011;1509;51.964;7.628;2024-02-26T08:22:59;2.93;;;2.57;;
2998;SDS011;1509;51.964;7.628;2024-02-26T08:25:25;3.37;;;2.93;;
2998;SDS011;1509;51.964;7.628;2024-02-26T08:27:54;3.70;;;2.33;;
2998;SDS011;1509;51.964;7.628;2024-02-26T08:30:19;4.30;;;3.20;;
2998;SDS011;1509;51.964;7.628;2024-02-26T08:32:45;3.43;;;2.50;;
2998;SDS011;1509;51.964;7.628;2024-02-26T08:35:12;6.60;;;3.70;;
2998;SDS011;1509;51.964;7.628;2024-02-26T08:37:38;7.90;;;4.83;;
2998;SDS011;1509;51.964;7.628;2024-02-26T08:40:04;5.23;;;4.63;;
2998;SDS011;1509;51.964;7.628;2024-02-26T08:42:31;4.50;;;3.40;;
2998;SDS011;1509;51.964;7.628;2024-02-26T08:44:56;4.17;;;2.70;;
2998;SDS011;1509;51.964;7.628;2024-02-26T08:47:25;3.53;;;3.20;;
2998;SDS011;1509;51.964;7.628;2024-02-26T08:49:50;4.80;;;3.40;;
2998;SDS011;1509;51.964;7.628;2024-02-26T08:52:16;4.63;;;3.07;;
2998;SDS011;1509;51.964;7.628;2024-02-26T08:54:42;4.90;;;3.20;;
2998;SDS011;1509;51.964;7.628;2024-02-26T08:57:07;3.83;;;3.23;;
2998;SDS011;1509;51.964;7.628;2024-02-26T08:59:33;6.27;;;4.17;;
2998;SDS011;1509;51.964;7.628;2024-02-26T09:01:59;8.50;;;5.17;;
2998;SDS011;1509;51.964;7.628;2024-02-26T09:04:24;3.83;;;3.40;;
2998;SDS011;1509;51.964;7.628;2024-02-26T09:06:51;5.50;;;3.70;;
2998;SDS011;1509;51.964;7.628;2024-02-26T09:09:17;6.80;;;3.73;;
2998;SDS011;1509;51.964;7.628;2024-02-26T09:11:42;4.50;;;3.40;;
2998;SDS011;1509;51.964;7.628;2024-02-26T09:14:08;4.73;;;3.67;;
2998;SDS011;1509;51.964;7.628;2024-02-26T09:16:33;4.70;;;3.67;;
2998;SDS011;1509;51.964;7.628;2024-02-26T09:18:59;7.20;;;4.30;;
2998;SDS011;1509;51.964;7.628;2024-02-26T09:21:27;7.63;;;4.90;;
2998;SDS011;1509;51.964;7.628;2024-02-26T09:23:53;7.27;;;4.40;;
2998;SDS011;1509;51.964;7.628;2024-02-26T09:26:19;5.00;;;4.47;;
2998;SDS011;1509;51.964;7.628;2024-02-26T09:28:45;7.00;;;4.60;;
2998;SDS011;1509;51.964;7.628;2024-02-26T09:31:10;8.43;;;4.43;;
2998;SDS011;1509;51.964;7.628;2024-02-26T09:33:36;6.07;;;4.43;;
2998;SDS011;1509;51.964;7.628;2024-02-26T09:36:02;10.60;;;4.83;;
2998;SDS011;1509;51.964;7.628;2024-02-26T09:38:29;7.60;;;4.90;;
2998;SDS011;1509;51.964;7.628;2024-02-26T09:40:56;5.20;;;4.13;;
2998;SDS011;1509;51.964;7.628;2024-02-26T09:43:23;7.90;;;4.13;;
2998;SDS011;1509;51.964;7.628;2024-02-26T09:45:53;7.03;;;4.73;;
2998;SDS011;1509;51.964;7.628;2024-02-26T09:48:20;6.17;;;4.00;;
2998;SDS011;1509;51.964;7.628;2024-02-26T09:50:48;7.70;;;4.57;;
2998;SDS011;1509;51.964;7.628;2024-02-26T09:53:14;6.43;;;4.70;;
2998;SDS011;1509;51.964;7.628;2024-02-26T09:55:42;10.00;;;6.33;;
2998;SDS011;1509;51.964;7.628;2024-02-26T09:58:08;13.50;;;5.13;;
2998;SDS011;1509;51.964;7.628;2024-02-26T10:00:37;9.47;;;4.73;;
2998;SDS011;1509;51.964;7.628;2024-02-26T10:03:06;8.00;;;5.37;;
2998;SDS011;1509;51.964;7.628;2024-02-26T10:05:38;9.77;;;5.27;;
2998;SDS011;1509;51.964;7.628;2024-02-26T10:08:05;9.20;;;4.43;;
2998;SDS011;1509;51.964;7.628;2024-02-26T10:10:33;7.27;;;5.13;;
2998;SDS011;1509;51.964;7.628;2024-02-26T10:12:59;6.30;;;5.20;;
2998;SDS011;1509;51.964;7.628;2024-02-26T10:15:26;6.53;;;5.20;;
2998;SDS011;1509;51.964;7.628;2024-02-26T10:17:52;6.50;;;4.70;;
2998;SDS011;1509;51.964;7.628;2024-02-26T10:20:18;6.40;;;4.10;;
2998;SDS011;1509;51.964;7.628;2024-02-26T10:22:47;8.10;;;4.93;;
2998;SDS011;1509;51.964;7.628;2024-02-26T10:25:12;8.37;;;5.03;;
2998;SDS011;1509;51.964;7.628;2024-02-26T10:27:40;8.30;;;5.20;;
2998;SDS011;1509;51.964;7.628;2024-02-26T10:30:16;5.77;;;4.30;;
2998;SDS011;1509;51.964;7.628;2024-02-26T10:32:44;7.37;;;5.50;;
2998;SDS011;1509;51.964;7.628;2024-02-26T10:35:14;6.60;;;4.53;;
2998;SDS011;1509;51.964;7.628;2024-02-26T10:37:41;5.70;;;4.60;;
2998;SDS011;1509;51.964;7.628;2024-02-26T10:40:10;5.40;;;4.10;;
2998;SDS011;1509;51.964;7.628;2024-02-26T10:42:36;5.20;;;4.50;;
2998;SDS011;1509;51.964;7.628;2024-02-26T10:45:03;6.97;;;5.07;;
2998;SDS011;1509;51.964;7.628;2024-02-26T10:47:30;7.63;;;5.10;;
2998;SDS011;1509;51.964;7.628;2024-02-26T10:49:58;5.37;;;4.50;;
2998;SDS011;1509;51.964;7.628;2024-02-26T10:52:24;6.17;;;4.60;;
2998;SDS011;1509;51.964;7.628;2024-02-26T10:54:53;7.93;;;4.70;;
2998;SDS011;1509;51.964;7.628;2024-02-26T10:57:21;9.77;;;5.40;;
2998;SDS011;1509;51.964;7.628;2024-02-26T10:59:49;4.93;;;3.90;;
2998;SDS011;1509;51.964;7.628;2024-02-26T11:02:17;6.83;;;5.10;;
2998;SDS011;1509;51.964;7.628;2024-02-26T11:04:48;7.27;;;4.87;;
2998;SDS011;1509;51.964;7.628;2024-02-26T11:07:15;12.97;;;5.53;;
2998;SDS011;1509;51.964;7.628;2024-02-26T11:09:41;5.60;;;5.00;;
2998;SDS011;1509;51.964;7.628;2024-02-26T11:12:10;6.27;;;4.47;;
2998;SDS011;1509;51.964;7.628;2024-02-26T11:14:38;6.07;;;5.07;;
2998;SDS011;1509;51.964;7.628;2024-02-26T11:17:05;6.40;;;4.03;;
2998;SDS011;1509;51.964;7.628;2024-02-26T11:19:33;6.80;;;4.40;;
2998;SDS011;1509;51.964;7.628;2024-02-26T11:22:01;4.90;;;3.47;;
2998;SDS011;1509;51.964;7.628;2024-02-26T11:24:26;4.53;;;3.70;;
2998;SDS011;1509;51.964;7.628;2024-02-26T11:26:54;5.47;;;3.33;;
2998;SDS011;1509;51.964;7.628;2024-02-26T11:29:35;4.73;;;3.73;;
2998;SDS011;1509;51.964;7.628;2024-02-26T11:32:04;6.50;;;3.90;;
2998;SDS011;1509;51.964;7.628;2024-02-26T11:34:31;5.93;;;4.07;;
2998;SDS011;1509;51.964;7.628;2024-02-26T11:36:57;5.33;;;3.30;;
2998;SDS011;1509;51.964;7.628;2024-02-26T11:39:33;4.60;;;3.37;;
2998;SDS011;1509;51.964;7.628;2024-02-26T11:42:10;5.70;;;3.73;;
2998;SDS011;1509;51.964;7.628;2024-02-26T11:44:40;6.67;;;3.87;;
2998;SDS011;1509;51.964;7.628;2024-02-26T11:47:13;4.73;;;3.60;;
2998;SDS011;1509;51.964;7.628;2024-02-26T11:49:47;7.47;;;3.60;;
2998;SDS011;1509;51.964;7.628;2024-02-26T11:52:13;4.77;;;3.10;;
2998;SDS011;1509;51.964;7.628;2024-02-26T11:57:24;3.73;;;3.00;;
2998;SDS011;1509;51.964;7.628;2024-02-26T12:00:10;5.13;;;3.43;;
2998;SDS011;1509;51.964;7.628;2024-02-26T12:05:11;4.00;;;3.53;;
2998;SDS011;1509;51.964;7.628;2024-02-26T12:10:35;4.07;;;3.10;;
2998;SDS011;1509;51.964;7.628;2024-02-26T12:13:15;3.23;;;2.50;;
2998;SDS011;1509;51.964;7.628;2024-02-26T12:15:45;4.90;;;3.00;;
2998;SDS011;1509;51.964;7.628;2024-02-26T12:18:20;3.43;;;2.53;;
2998;SDS011;1509;51.964;7.628;2024-02-26T12:21:07;4.03;;;2.80;;
2998;SDS011;1509;51.964;7.628;2024-02-26T12:23:37;5.60;;;3.40;;
2998;SDS011;1509;51.964;7.628;2024-02-26T12:26:06;3.90;;;2.97;;
2998;SDS011;1509;51.964;7.628;2024-02-26T12:28:33;4.87;;;3.40;;
2998;SDS011;1509;51.964;7.628;2024-02-26T12:30:58;2.93;;;2.63;;
2998;SDS011;1509;51.964;7.628;2024-02-26T12:33:25;3.20;;;2.87;;
2998;SDS011;1509;51.964;7.628;2024-02-26T12:35:51;3.30;;;3.00;;
2998;SDS011;1509;51.964;7.628;2024-02-26T12:38:18;4.63;;;3.50;;
2998;SDS011;1509;51.964;7.628;2024-02-26T12:40:44;4.97;;;3.20;;
2998;SDS011;1509;51.964;7.628;2024-02-26T12:43:10;5.57;;;3.20;;
2998;SDS011;1509;51.964;7.628;2024-02-26T12:45:40;5.70;;;3.40;;
2998;SDS011;1509;51.964;7.628;2024-02-26T12:48:06;4.60;;;3.03;;
2998;SDS011;1509;51.964;7.628;2024-02-26T12:50:32;5.80;;;4.20;;
2998;SDS011;1509;51.964;7.628;2024-02-26T12:52:59;3.50;;;3.20;;
2998;SDS011;1509;51.964;7.628;2024-02-26T12:55:25;4.03;;;3.40;;
2998;SDS011;1509;51.964;7.628;2024-02-26T12:57:51;4.30;;;2.70;;
2998;SDS011;1509;51.964;7.628;2024-02-26T13:00:18;4.73;;;4.07;;
2998;SDS011;1509;51.964;7.628;2024-02-26T13:02:48;3.63;;;3.33;;
2998;SDS011;1509;51.964;7.628;2024-02-26T13:05:15;3.70;;;3.07;;
2998;SDS011;1509;51.964;7.628;2024-02-26T13:07:45;4.80;;;3.30;;
2998;SDS011;1509;51.964;7.628;2024-02-26T13:10:18;4.63;;;3.40;;
2998;SDS011;1509;51.964;7.628;2024-02-26T13:12:45;5.50;;;3.20;;
2998;SDS011;1509;51.964;7.628;2024-02-26T13:15:15;3.70;;;3.00;;
2998;SDS011;1509;51.964;7.628;2024-02-26T13:17:42;6.53;;;3.67;;
2998;SDS011;1509;51.964;7.628;2024-02-26T13:20:08;3.00;;;2.70;;
2998;SDS011;1509;51.964;7.628;2024-02-26T13:22:35;5.43;;;3.47;;
2998;SDS011;1509;51.964;7.628;2024-02-26T13:25:01;4.47;;;4.07;;
2998;SDS011;1509;51.964;7.628;2024-02-26T13:27:28;4.07;;;3.00;;
2998;SDS011;1509;51.964;7.628;2024-02-26T13:30:10;3.60;;;3.20;;
2998;SDS011;1509;51.964;7.628;2024-02-26T13:32:38;3.40;;;2.90;;
2998;SDS011;1509;51.964;7.628;2024-02-26T13:35:08;5.53;;;2.90;;
2998;SDS011;1509;51.964;7.628;2024-02-26T13:37:37;2.70;;;2.50;;
2998;SDS011;1509;51.964;7.628;2024-02-26T13:40:04;3.50;;;2.93;;
2998;SDS011;1509;51.964;7.628;2024-02-26T13:42:41;4.80;;;3.40;;
2998;SDS011;1509;51.964;7.628;2024-02-26T13:45:07;4.40;;;4.00;;
2998;SDS011;1509;51.964;7.628;2024-02-26T13:47:33;4.43;;;3.40;;
2998;SDS011;1509;51.964;7.628;2024-02-26T13:49:59;4.73;;;3.20;;
2998;SDS011;1509;51.964;7.628;2024-02-26T13:52:26;4.50;;;3.47;;
2998;SDS011;1509;51.964;7.628;2024-02-26T13:54:51;4.20;;;2.73;;
2998;SDS011;1509;51.964;7.628;2024-02-26T13:57:17;4.00;;;2.50;;
2998;SDS011;1509;51.964;7.628;2024-02-26T13:59:44;3.20;;;2.90;;
2998;SDS011;1509;51.964;7.628;2024-02-26T14:02:10;3.83;;;3.43;;
2998;SDS011;1509;51.964;7.628;2024-02-26T14:04:36;4.17;;;3.17;;
2998;SDS011;1509;51.964;7.628;2024-02-26T14:07:05;6.83;;;4.00;;
2998;SDS011;1509;51.964;7.628;2024-02-26T14:09:31;5.53;;;3.27;;
2998;SDS011;1509;51.964;7.628;2024-02-26T14:11:57;5.80;;;3.03;;
2998;SDS011;1509;51.964;7.628;2024-02-26T14:14:24;5.10;;;3.30;;
2998;SDS011;1509;51.964;7.628;2024-02-26T14:16:50;5.60;;;4.03;;
2998;SDS011;1509;51.964;7.628;2024-02-26T14:19:16;3.47;;;2.80;;
2998;SDS011;1509;51.964;7.628;2024-02-26T14:21:42;4.30;;;3.30;;
2998;SDS011;1509;51.964;7.628;2024-02-26T14:24:07;3.30;;;2.77;;
2998;SDS011;1509;51.964;7.628;2024-02-26T14:26:33;5.03;;;4.63;;
2998;SDS011;1509;51.964;7.628;2024-02-26T14:28:59;8.30;;;3.70;;
2998;SDS011;1509;51.964;7.628;2024-02-26T14:31:25;4.77;;;3.10;;
2998;SDS011;1509;51.964;7.628;2024-02-26T14:33:50;2.90;;;2.60;;
2998;SDS011;1509;51.964;7.628;2024-02-26T14:36:18;4.47;;;3.40;;
2998;SDS011;1509;51.964;7.628;2024-02-26T14:38:47;5.00;;;3.77;;
2998;SDS011;1509;51.964;7.628;2024-02-26T14:41:13;4.27;;;3.47;;
2998;SDS011;1509;51.964;7.628;2024-02-26T14:43:39;4.20;;;3.40;;
2998;SDS011;1509;51.964;7.628;2024-02-26T14:46:05;3.67;;;3.03;;
2998;SDS011;1509;51.964;7.628;2024-02-26T14:48:30;4.23;;;3.53;;
2998;SDS011;1509;51.964;7.628;2024-02-26T14:50:57;11.50;;;6.10;;
2998;SDS011;1509;51.964;7.628;2024-02-26T14:53:23;4.90;;;3.00;;
2998;SDS011;1509;51.964;7.628;2024-02-26T14:55:49;5.07;;;3.80;;
2998;SDS011;1509;51.964;7.628;2024-02-26T14:58:15;4.97;;;3.57;;
2998;SDS011;1509;51.964;7.628;2024-02-26T15:00:41;4.80;;;3.60;;
2998;SDS011;1509;51.964;7.628;2024-02-26T15:03:09;3.33;;;3.03;;
2998;SDS011;1509;51.964;7.628;2024-02-26T15:05:35;6.97;;;3.83;;
2998;SDS011;1509;51.964;7.628;2024-02-26T15:08:01;4.73;;;3.57;;
2998;SDS011;1509;51.964;7.628;2024-02-26T15:10:27;4.43;;;3.70;;
2998;SDS011;1509;51.964;7.628;2024-02-26T15:12:53;5.37;;;3.70;;
2998;SDS011;1509;51.964;7.628;2024-02-26T15:15:23;4.30;;;3.47;;
2998;SDS011;1509;51.964;7.628;2024-02-26T15:17:49;9.27;;;5.33;;
2998;SDS011;1509;51.964;7.628;2024-02-26T15:20:16;6.03;;;3.60;;